sensor_id;sensor_type;location;lat;lon;timestamp;P1;durP1;ratioP1;P2;durP2;ratioP2
5807;SDS011;2930;42.678;23.312;2022-12-18T00:00:43;2.23;;;1.40;;
5807;SDS011;2930;42.678;23.312;2022-12-18T00:03:09;1.90;;;1.80;;
5807;SDS011;2930;42.678;23.312;2022-12-18T00:05:35;1.80;;;1.70;;
5807;SDS011;2930;42.678;23.312;2022-12-18T00:08:01;1.47;;;1.30;;
5807;SDS011;2930;42.678;23.312;2022-12-18T00:10:28;1.90;;;1.60;;
5807;SDS011;2930;42.678;23.312;2022-12-18T00:12:54;1.50;;;1.40;;
5807;SDS011;2930;42.678;23.312;2022-12-18T00:15:20;1.43;;;1.43;;
5807;SDS011;2930;42.678;23.312;2022-12-18T00:17:45;1.83;;;1.73;;
5807;SDS011;2930;42.678;23.312;2022-12-18T00:20:11;2.30;;;1.30;;
5807;SDS011;2930;42.678;23.312;2022-12-18T00:22:37;1.73;;;1.57;;
5807;SDS011;2930;42.678;23.312;2022-12-18T00:25:02;1.57;;;1.53;;
5807;SDS011;2930;42.678;23.312;2022-12-18T00:27:28;2.00;;;1.90;;
5807;SDS011;2930;42.678;23.312;2022-12-18T00:29:54;3.97;;;1.67;;
5807;SDS011;2930;42.678;23.312;2022-12-18T00:32:20;2.53;;;2.33;;
5807;SDS011;2930;42.678;23.312;2022-12-18T00:34:45;1.77;;;1.67;;
5807;SDS011;2930;42.678;23.312;2022-12-18T00:37:11;1.70;;;1.60;;
5807;SDS011;2930;42.678;23.312;2022-12-18T00:39:36;2.17;;;2.07;;
5807;SDS011;2930;42.678;23.312;2022-12-18T00:42:02;2.17;;;2.07;;
5807;SDS011;2930;42.678;23.312;2022-12-18T00:44:46;1.70;;;1.60;;
5807;SDS011;2930;42.678;23.312;2022-12-18T00:47:12;1.43;;;1.43;;
5807;SDS011;2930;42.678;23.312;2022-12-18T00:49:37;2.03;;;1.93;;
5807;SDS011;2930;42.678;23.312;2022-12-18T00:52:03;3.00;;;2.77;;
5807;SDS011;2930;42.678;23.312;2022-12-18T00:54:29;1.90;;;1.80;;
5807;SDS011;2930;42.678;23.312;2022-12-18T00:56:55;2.27;;;2.17;;
5807;SDS011;2930;42.678;23.312;2022-12-18T00:59:20;2.07;;;1.97;;
5807;SDS011;2930;42.678;23.312;2022-12-18T01:01:46;2.27;;;2.17;;
5807;SDS011;2930;42.678;23.312;2022-12-18T01:04:12;3.17;;;1.90;;
5807;SDS011;2930;42.678;23.312;2022-12-18T01:06:38;2.37;;;2.17;;
5807;SDS011;2930;42.678;23.312;2022-12-18T01:09:04;2.10;;;2.00;;
5807;SDS011;2930;42.678;23.312;2022-12-18T01:11:30;2.00;;;1.90;;
5807;SDS011;2930;42.678;23.312;2022-12-18T01:13:56;2.00;;;1.90;;
5807;SDS011;2930;42.678;23.312;2022-12-18T01:16:22;1.47;;;1.37;;
5807;SDS011;2930;42.678;23.312;2022-12-18T01:18:50;2.00;;;1.80;;
5807;SDS011;2930;42.678;23.312;2022-12-18T01:21:17;1.73;;;1.63;;
5807;SDS011;2930;42.678;23.312;2022-12-18T01:23:43;2.07;;;1.97;;
5807;SDS011;2930;42.678;23.312;2022-12-18T01:26:09;1.97;;;1.83;;
5807;SDS011;2930;42.678;23.312;2022-12-18T01:28:37;2.23;;;2.03;;
5807;SDS011;2930;42.678;23.312;2022-12-18T01:31:25;2.90;;;2.70;;
5807;SDS011;2930;42.678;23.312;2022-12-18T01:33:53;2.40;;;2.20;;
5807;SDS011;2930;42.678;23.312;2022-12-18T01:36:23;2.57;;;2.37;;
5807;SDS011;2930;42.678;23.312;2022-12-18T01:38:51;2.13;;;2.03;;
5807;SDS011;2930;42.678;23.312;2022-12-18T01:41:20;1.40;;;1.30;;
5807;SDS011;2930;42.678;23.312;2022-12-18T01:46:16;2.30;;;2.20;;
5807;SDS011;2930;42.678;23.312;2022-12-18T01:48:43;2.60;;;2.40;;
5807;SDS011;2930;42.678;23.312;2022-12-18T01:51:12;2.97;;;2.50;;
5807;SDS011;2930;42.678;23.312;2022-12-18T01:53:38;2.90;;;2.00;;
5807;SDS011;2930;42.678;23.312;2022-12-18T01:56:08;1.93;;;1.83;;
5807;SDS011;2930;42.678;23.312;2022-12-18T02:01:20;1.43;;;1.17;;
5807;SDS011;2930;42.678;23.312;2022-12-18T02:03:47;3.43;;;2.00;;
5807;SDS011;2930;42.678;23.312;2022-12-18T02:12:05;1.60;;;1.50;;
5807;SDS011;2930;42.678;23.312;2022-12-18T02:14:55;2.77;;;1.80;;
5807;SDS011;2930;42.678;23.312;2022-12-18T02:17:48;2.00;;;1.90;;
5807;SDS011;2930;42.678;23.312;2022-12-18T02:28:46;2.07;;;1.97;;
5807;SDS011;2930;42.678;23.312;2022-12-18T02:31:19;2.80;;;2.60;;
5807;SDS011;2930;42.678;23.312;2022-12-18T02:33:48;2.37;;;2.27;;
5807;SDS011;2930;42.678;23.312;2022-12-18T02:36:16;1.63;;;1.53;;
5807;SDS011;2930;42.678;23.312;2022-12-18T02:38:43;2.10;;;2.00;;
5807;SDS011;2930;42.678;23.312;2022-12-18T02:41:10;1.90;;;1.80;;
5807;SDS011;2930;42.678;23.312;2022-12-18T02:43:38;1.70;;;1.70;;
5807;SDS011;2930;42.678;23.312;2022-12-18T02:49:02;1.93;;;1.83;;
5807;SDS011;2930;42.678;23.312;2022-12-18T02:51:55;2.00;;;1.30;;
5807;SDS011;2930;42.678;23.312;2022-12-18T03:00:20;1.60;;;1.50;;
5807;SDS011;2930;42.678;23.312;2022-12-18T03:02:57;1.60;;;1.50;;
5807;SDS011;2930;42.678;23.312;2022-12-18T03:05:30;1.83;;;1.53;;
5807;SDS011;2930;42.678;23.312;2022-12-18T03:08:02;1.57;;;1.47;;
5807;SDS011;2930;42.678;23.312;2022-12-18T03:11:03;1.53;;;1.43;;
5807;SDS011;2930;42.678;23.312;2022-12-18T03:13:43;1.60;;;1.60;;
5807;SDS011;2930;42.678;23.312;2022-12-18T03:16:14;5.17;;;1.80;;
5807;SDS011;2930;42.678;23.312;2022-12-18T03:18:47;2.93;;;1.40;;
5807;SDS011;2930;42.678;23.312;2022-12-18T03:21:19;1.70;;;1.60;;
5807;SDS011;2930;42.678;23.312;2022-12-18T03:23:51;2.53;;;2.13;;
5807;SDS011;2930;42.678;23.312;2022-12-18T03:26:19;1.73;;;1.57;;
5807;SDS011;2930;42.678;23.312;2022-12-18T03:28:50;2.03;;;1.90;;
5807;SDS011;2930;42.678;23.312;2022-12-18T03:31:18;2.00;;;1.90;;
5807;SDS011;2930;42.678;23.312;2022-12-18T03:33:56;1.17;;;1.17;;
5807;SDS011;2930;42.678;23.312;2022-12-18T03:36:24;1.97;;;1.87;;
5807;SDS011;2930;42.678;23.312;2022-12-18T03:38:50;1.93;;;1.77;;
5807;SDS011;2930;42.678;23.312;2022-12-18T03:41:18;1.17;;;1.17;;
5807;SDS011;2930;42.678;23.312;2022-12-18T03:46:50;2.07;;;1.93;;
5807;SDS011;2930;42.678;23.312;2022-12-18T03:52:01;2.13;;;1.90;;
5807;SDS011;2930;42.678;23.312;2022-12-18T03:54:30;1.83;;;1.73;;
5807;SDS011;2930;42.678;23.312;2022-12-18T03:57:05;1.87;;;1.77;;
5807;SDS011;2930;42.678;23.312;2022-12-18T03:59:36;2.03;;;1.70;;
5807;SDS011;2930;42.678;23.312;2022-12-18T04:02:03;1.63;;;1.53;;
5807;SDS011;2930;42.678;23.312;2022-12-18T04:04:31;1.90;;;1.80;;
5807;SDS011;2930;42.678;23.312;2022-12-18T04:06:58;2.07;;;1.83;;
5807;SDS011;2930;42.678;23.312;2022-12-18T04:09:24;2.97;;;2.53;;
5807;SDS011;2930;42.678;23.312;2022-12-18T04:11:51;2.67;;;2.40;;
5807;SDS011;2930;42.678;23.312;2022-12-18T04:14:17;2.70;;;2.50;;
5807;SDS011;2930;42.678;23.312;2022-12-18T04:16:42;2.03;;;1.93;;
5807;SDS011;2930;42.678;23.312;2022-12-18T04:19:08;2.77;;;2.03;;
5807;SDS011;2930;42.678;23.312;2022-12-18T04:21:34;2.80;;;2.10;;
5807;SDS011;2930;42.678;23.312;2022-12-18T04:23:59;2.53;;;2.33;;
5807;SDS011;2930;42.678;23.312;2022-12-18T04:26:25;3.23;;;2.07;;
5807;SDS011;2930;42.678;23.312;2022-12-18T04:28:51;3.63;;;2.33;;
5807;SDS011;2930;42.678;23.312;2022-12-18T04:31:16;2.77;;;2.50;;
5807;SDS011;2930;42.678;23.312;2022-12-18T04:33:42;1.77;;;1.63;;
5807;SDS011;2930;42.678;23.312;2022-12-18T04:36:07;1.67;;;1.57;;
5807;SDS011;2930;42.678;23.312;2022-12-18T04:38:33;2.37;;;1.70;;
5807;SDS011;2930;42.678;23.312;2022-12-18T04:40:59;1.90;;;1.70;;
5807;SDS011;2930;42.678;23.312;2022-12-18T04:43:24;2.93;;;2.20;;
5807;SDS011;2930;42.678;23.312;2022-12-18T04:45:50;4.83;;;2.57;;
5807;SDS011;2930;42.678;23.312;2022-12-18T04:48:16;5.00;;;2.37;;
5807;SDS011;2930;42.678;23.312;2022-12-18T04:50:41;2.90;;;2.63;;
5807;SDS011;2930;42.678;23.312;2022-12-18T04:53:07;2.43;;;2.33;;
5807;SDS011;2930;42.678;23.312;2022-12-18T04:55:33;3.17;;;1.87;;
5807;SDS011;2930;42.678;23.312;2022-12-18T04:57:58;1.73;;;1.63;;
5807;SDS011;2930;42.678;23.312;2022-12-18T05:00:24;2.63;;;2.43;;
5807;SDS011;2930;42.678;23.312;2022-12-18T05:02:49;2.77;;;2.57;;
5807;SDS011;2930;42.678;23.312;2022-12-18T05:05:15;3.87;;;2.97;;
5807;SDS011;2930;42.678;23.312;2022-12-18T05:07:41;4.27;;;2.60;;
5807;SDS011;2930;42.678;23.312;2022-12-18T05:10:07;2.90;;;2.57;;
5807;SDS011;2930;42.678;23.312;2022-12-18T05:12:33;4.17;;;3.20;;
5807;SDS011;2930;42.678;23.312;2022-12-18T05:14:59;2.93;;;2.57;;
5807;SDS011;2930;42.678;23.312;2022-12-18T05:17:24;5.30;;;3.03;;
5807;SDS011;2930;42.678;23.312;2022-12-18T05:19:50;3.60;;;2.70;;
5807;SDS011;2930;42.678;23.312;2022-12-18T05:22:16;4.03;;;2.40;;
5807;SDS011;2930;42.678;23.312;2022-12-18T05:24:41;2.90;;;2.70;;
5807;SDS011;2930;42.678;23.312;2022-12-18T05:27:07;2.77;;;2.63;;
5807;SDS011;2930;42.678;23.312;2022-12-18T05:29:32;3.80;;;3.37;;
5807;SDS011;2930;42.678;23.312;2022-12-18T05:31:58;5.63;;;3.67;;
5807;SDS011;2930;42.678;23.312;2022-12-18T05:34:24;3.17;;;2.87;;
5807;SDS011;2930;42.678;23.312;2022-12-18T05:36:49;3.23;;;3.03;;
5807;SDS011;2930;42.678;23.312;2022-12-18T05:39:15;2.93;;;2.27;;
5807;SDS011;2930;42.678;23.312;2022-12-18T05:41:41;6.27;;;2.83;;
5807;SDS011;2930;42.678;23.312;2022-12-18T05:44:06;4.80;;;3.30;;
5807;SDS011;2930;42.678;23.312;2022-12-18T05:46:32;3.03;;;2.73;;
5807;SDS011;2930;42.678;23.312;2022-12-18T05:49:00;2.63;;;2.43;;
5807;SDS011;2930;42.678;23.312;2022-12-18T05:51:27;3.57;;;2.77;;
5807;SDS011;2930;42.678;23.312;2022-12-18T05:53:52;3.60;;;3.23;;
5807;SDS011;2930;42.678;23.312;2022-12-18T05:56:19;6.23;;;3.33;;
5807;SDS011;2930;42.678;23.312;2022-12-18T05:58:46;4.07;;;3.43;;
5807;SDS011;2930;42.678;23.312;2022-12-18T06:01:16;6.10;;;2.97;;
5807;SDS011;2930;42.678;23.312;2022-12-18T06:03:44;2.80;;;2.60;;
5807;SDS011;2930;42.678;23.312;2022-12-18T06:09:02;3.70;;;3.37;;
5807;SDS011;2930;42.678;23.312;2022-12-18T06:11:33;3.67;;;3.20;;
5807;SDS011;2930;42.678;23.312;2022-12-18T06:14:00;5.40;;;3.73;;
5807;SDS011;2930;42.678;23.312;2022-12-18T06:16:26;7.43;;;3.73;;
5807;SDS011;2930;42.678;23.312;2022-12-18T06:18:53;4.83;;;3.83;;
5807;SDS011;2930;42.678;23.312;2022-12-18T06:21:21;7.77;;;3.80;;
5807;SDS011;2930;42.678;23.312;2022-12-18T06:23:47;3.97;;;3.30;;
5807;SDS011;2930;42.678;23.312;2022-12-18T06:26:13;6.87;;;3.83;;
5807;SDS011;2930;42.678;23.312;2022-12-18T06:28:39;4.53;;;3.97;;
5807;SDS011;2930;42.678;23.312;2022-12-18T06:31:05;5.03;;;3.13;;
5807;SDS011;2930;42.678;23.312;2022-12-18T06:33:32;3.80;;;3.50;;
5807;SDS011;2930;42.678;23.312;2022-12-18T06:36:08;5.50;;;3.77;;
5807;SDS011;2930;42.678;23.312;2022-12-18T06:38:38;6.37;;;4.50;;
5807;SDS011;2930;42.678;23.312;2022-12-18T06:41:10;3.97;;;3.67;;
5807;SDS011;2930;42.678;23.312;2022-12-18T06:43:38;3.37;;;2.80;;
5807;SDS011;2930;42.678;23.312;2022-12-18T06:46:04;4.17;;;3.43;;
5807;SDS011;2930;42.678;23.312;2022-12-18T06:48:29;6.27;;;3.67;;
5807;SDS011;2930;42.678;23.312;2022-12-18T06:50:56;5.97;;;4.23;;
5807;SDS011;2930;42.678;23.312;2022-12-18T06:53:22;5.23;;;2.97;;
5807;SDS011;2930;42.678;23.312;2022-12-18T06:55:48;7.40;;;4.17;;
5807;SDS011;2930;42.678;23.312;2022-12-18T06:58:14;4.50;;;3.13;;
5807;SDS011;2930;42.678;23.312;2022-12-18T07:00:39;5.30;;;4.43;;
5807;SDS011;2930;42.678;23.312;2022-12-18T07:03:05;4.80;;;3.63;;
5807;SDS011;2930;42.678;23.312;2022-12-18T07:05:31;5.23;;;3.37;;
5807;SDS011;2930;42.678;23.312;2022-12-18T07:07:57;4.70;;;3.63;;
5807;SDS011;2930;42.678;23.312;2022-12-18T07:10:23;7.63;;;4.23;;
5807;SDS011;2930;42.678;23.312;2022-12-18T07:12:49;7.07;;;4.63;;
5807;SDS011;2930;42.678;23.312;2022-12-18T07:15:15;5.90;;;3.67;;
5807;SDS011;2930;42.678;23.312;2022-12-18T07:17:40;5.87;;;3.73;;
5807;SDS011;2930;42.678;23.312;2022-12-18T07:20:06;5.20;;;4.23;;
5807;SDS011;2930;42.678;23.312;2022-12-18T07:22:32;4.00;;;3.60;;
5807;SDS011;2930;42.678;23.312;2022-12-18T07:24:58;6.23;;;4.40;;
5807;SDS011;2930;42.678;23.312;2022-12-18T07:27:24;8.23;;;4.57;;
5807;SDS011;2930;42.678;23.312;2022-12-18T07:29:49;6.33;;;3.93;;
5807;SDS011;2930;42.678;23.312;2022-12-18T07:32:15;6.83;;;4.03;;
5807;SDS011;2930;42.678;23.312;2022-12-18T07:34:41;6.30;;;4.27;;
5807;SDS011;2930;42.678;23.312;2022-12-18T07:37:07;5.67;;;4.40;;
5807;SDS011;2930;42.678;23.312;2022-12-18T07:39:32;6.23;;;4.63;;
5807;SDS011;2930;42.678;23.312;2022-12-18T07:41:58;7.20;;;5.40;;
5807;SDS011;2930;42.678;23.312;2022-12-18T07:44:42;11.17;;;5.03;;
5807;SDS011;2930;42.678;23.312;2022-12-18T07:47:08;8.60;;;4.87;;
5807;SDS011;2930;42.678;23.312;2022-12-18T07:49:35;4.60;;;4.10;;
5807;SDS011;2930;42.678;23.312;2022-12-18T07:52:01;7.37;;;4.63;;
5807;SDS011;2930;42.678;23.312;2022-12-18T07:54:27;6.70;;;5.00;;
5807;SDS011;2930;42.678;23.312;2022-12-18T07:56:53;7.27;;;5.07;;
5807;SDS011;2930;42.678;23.312;2022-12-18T07:59:18;6.27;;;4.37;;
5807;SDS011;2930;42.678;23.312;2022-12-18T08:01:45;8.00;;;4.50;;
5807;SDS011;2930;42.678;23.312;2022-12-18T08:04:12;9.63;;;5.20;;
5807;SDS011;2930;42.678;23.312;2022-12-18T08:06:37;5.63;;;4.30;;
5807;SDS011;2930;42.678;23.312;2022-12-18T08:09:03;7.13;;;5.13;;
5807;SDS011;2930;42.678;23.312;2022-12-18T08:11:29;9.60;;;5.27;;
5807;SDS011;2930;42.678;23.312;2022-12-18T08:13:55;8.70;;;5.60;;
5807;SDS011;2930;42.678;23.312;2022-12-18T08:16:21;8.00;;;5.87;;
5807;SDS011;2930;42.678;23.312;2022-12-18T08:18:47;8.73;;;5.47;;
5807;SDS011;2930;42.678;23.312;2022-12-18T08:21:15;10.47;;;6.60;;
5807;SDS011;2930;42.678;23.312;2022-12-18T08:23:41;6.80;;;4.87;;
5807;SDS011;2930;42.678;23.312;2022-12-18T08:26:07;6.57;;;5.03;;
5807;SDS011;2930;42.678;23.312;2022-12-18T08:28:33;13.10;;;6.53;;
5807;SDS011;2930;42.678;23.312;2022-12-18T08:30:59;6.17;;;4.77;;
5807;SDS011;2930;42.678;23.312;2022-12-18T08:33:24;8.57;;;5.33;;
5807;SDS011;2930;42.678;23.312;2022-12-18T08:35:51;8.23;;;5.50;;
5807;SDS011;2930;42.678;23.312;2022-12-18T08:38:17;4.57;;;3.70;;
5807;SDS011;2930;42.678;23.312;2022-12-18T08:40:43;6.73;;;4.73;;
5807;SDS011;2930;42.678;23.312;2022-12-18T08:43:11;7.90;;;4.97;;
5807;SDS011;2930;42.678;23.312;2022-12-18T08:45:55;5.73;;;4.00;;
5807;SDS011;2930;42.678;23.312;2022-12-18T08:48:21;6.27;;;4.37;;
5807;SDS011;2930;42.678;23.312;2022-12-18T08:50:56;6.30;;;4.70;;
5807;SDS011;2930;42.678;23.312;2022-12-18T08:53:23;6.63;;;4.70;;
5807;SDS011;2930;42.678;23.312;2022-12-18T08:55:50;10.40;;;4.43;;
5807;SDS011;2930;42.678;23.312;2022-12-18T08:58:16;4.20;;;3.87;;
5807;SDS011;2930;42.678;23.312;2022-12-18T09:00:41;8.17;;;4.87;;
5807;SDS011;2930;42.678;23.312;2022-12-18T09:03:25;9.03;;;5.00;;
5807;SDS011;2930;42.678;23.312;2022-12-18T09:05:51;5.00;;;4.07;;
5807;SDS011;2930;42.678;23.312;2022-12-18T09:08:17;10.17;;;5.23;;
5807;SDS011;2930;42.678;23.312;2022-12-18T09:10:43;6.90;;;4.73;;
5807;SDS011;2930;42.678;23.312;2022-12-18T09:13:10;7.83;;;4.63;;
5807;SDS011;2930;42.678;23.312;2022-12-18T09:15:44;14.03;;;5.87;;
5807;SDS011;2930;42.678;23.312;2022-12-18T09:18:12;8.10;;;5.10;;
5807;SDS011;2930;42.678;23.312;2022-12-18T09:20:38;7.93;;;5.10;;
5807;SDS011;2930;42.678;23.312;2022-12-18T09:23:05;7.07;;;5.27;;
5807;SDS011;2930;42.678;23.312;2022-12-18T09:25:31;7.17;;;4.47;;
5807;SDS011;2930;42.678;23.312;2022-12-18T09:28:10;6.43;;;4.57;;
5807;SDS011;2930;42.678;23.312;2022-12-18T09:30:38;6.03;;;3.67;;
5807;SDS011;2930;42.678;23.312;2022-12-18T09:33:05;6.07;;;4.50;;
5807;SDS011;2930;42.678;23.312;2022-12-18T09:35:31;10.10;;;4.47;;
5807;SDS011;2930;42.678;23.312;2022-12-18T09:37:57;7.00;;;4.00;;
5807;SDS011;2930;42.678;23.312;2022-12-18T09:40:23;5.53;;;4.70;;
5807;SDS011;2930;42.678;23.312;2022-12-18T09:42:55;8.90;;;5.43;;
5807;SDS011;2930;42.678;23.312;2022-12-18T09:45:25;11.33;;;4.60;;
5807;SDS011;2930;42.678;23.312;2022-12-18T09:47:51;8.73;;;4.50;;
5807;SDS011;2930;42.678;23.312;2022-12-18T09:50:32;6.13;;;4.57;;
5807;SDS011;2930;42.678;23.312;2022-12-18T09:53:04;10.50;;;5.50;;
5807;SDS011;2930;42.678;23.312;2022-12-18T09:55:45;9.27;;;4.73;;
5807;SDS011;2930;42.678;23.312;2022-12-18T09:58:30;13.17;;;5.50;;
5807;SDS011;2930;42.678;23.312;2022-12-18T10:00:57;7.40;;;4.47;;
5807;SDS011;2930;42.678;23.312;2022-12-18T10:03:23;10.63;;;4.77;;
5807;SDS011;2930;42.678;23.312;2022-12-18T10:13:57;6.70;;;4.53;;
5807;SDS011;2930;42.678;23.312;2022-12-18T10:16:49;7.83;;;4.27;;
5807;SDS011;2930;42.678;23.312;2022-12-18T10:28:12;5.67;;;3.73;;
5807;SDS011;2930;42.678;23.312;2022-12-18T10:30:42;8.10;;;5.57;;
5807;SDS011;2930;42.678;23.312;2022-12-18T10:33:14;8.30;;;4.60;;
5807;SDS011;2930;42.678;23.312;2022-12-18T10:35:43;6.07;;;3.83;;
5807;SDS011;2930;42.678;23.312;2022-12-18T10:40:48;6.70;;;4.47;;
5807;SDS011;2930;42.678;23.312;2022-12-18T10:48:25;5.40;;;4.40;;
5807;SDS011;2930;42.678;23.312;2022-12-18T10:50:52;9.07;;;4.77;;
5807;SDS011;2930;42.678;23.312;2022-12-18T10:53:38;10.53;;;6.27;;
5807;SDS011;2930;42.678;23.312;2022-12-18T10:56:07;8.67;;;5.07;;
5807;SDS011;2930;42.678;23.312;2022-12-18T10:58:37;8.20;;;5.53;;
5807;SDS011;2930;42.678;23.312;2022-12-18T11:01:16;7.53;;;4.80;;
5807;SDS011;2930;42.678;23.312;2022-12-18T11:06:18;4.93;;;4.03;;
5807;SDS011;2930;42.678;23.312;2022-12-18T11:09:05;4.13;;;3.73;;
5807;SDS011;2930;42.678;23.312;2022-12-18T11:11:51;5.70;;;3.93;;
5807;SDS011;2930;42.678;23.312;2022-12-18T11:14:31;5.07;;;4.20;;
5807;SDS011;2930;42.678;23.312;2022-12-18T11:16:59;8.07;;;4.93;;
5807;SDS011;2930;42.678;23.312;2022-12-18T11:21:58;7.80;;;4.27;;
5807;SDS011;2930;42.678;23.312;2022-12-18T11:26:55;6.57;;;4.47;;
5807;SDS011;2930;42.678;23.312;2022-12-18T11:29:34;7.43;;;3.73;;
5807;SDS011;2930;42.678;23.312;2022-12-18T11:35:01;5.87;;;3.57;;
5807;SDS011;2930;42.678;23.312;2022-12-18T11:37:53;4.87;;;4.47;;
5807;SDS011;2930;42.678;23.312;2022-12-18T11:40:27;7.30;;;4.07;;
5807;SDS011;2930;42.678;23.312;2022-12-18T11:43:02;9.47;;;5.60;;
5807;SDS011;2930;42.678;23.312;2022-12-18T11:45:34;5.60;;;3.83;;
5807;SDS011;2930;42.678;23.312;2022-12-18T11:51:04;4.63;;;3.90;;
5807;SDS011;2930;42.678;23.312;2022-12-18T11:53:36;8.60;;;4.73;;
5807;SDS011;2930;42.678;23.312;2022-12-18T12:09:39;5.97;;;4.33;;
5807;SDS011;2930;42.678;23.312;2022-12-18T12:20:42;6.30;;;4.33;;
5807;SDS011;2930;42.678;23.312;2022-12-18T12:23:25;7.20;;;4.70;;
5807;SDS011;2930;42.678;23.312;2022-12-18T12:26:40;6.73;;;3.47;;
5807;SDS011;2930;42.678;23.312;2022-12-18T12:38:06;6.93;;;5.53;;
5807;SDS011;2930;42.678;23.312;2022-12-18T12:40:43;7.87;;;4.17;;
5807;SDS011;2930;42.678;23.312;2022-12-18T12:43:37;6.13;;;4.40;;
5807;SDS011;2930;42.678;23.312;2022-12-18T12:46:11;9.73;;;5.13;;
5807;SDS011;2930;42.678;23.312;2022-12-18T12:53:42;8.17;;;5.30;;
5807;SDS011;2930;42.678;23.312;2022-12-18T12:56:09;9.43;;;5.70;;
5807;SDS011;2930;42.678;23.312;2022-12-18T13:01:14;10.07;;;6.00;;
5807;SDS011;2930;42.678;23.312;2022-12-18T13:09:10;11.27;;;5.97;;
5807;SDS011;2930;42.678;23.312;2022-12-18T13:11:43;8.87;;;4.63;;
5807;SDS011;2930;42.678;23.312;2022-12-18T13:14:32;10.03;;;5.80;;
5807;SDS011;2930;42.678;23.312;2022-12-18T13:19:47;7.53;;;5.20;;
5807;SDS011;2930;42.678;23.312;2022-12-18T13:22:32;7.70;;;5.53;;
5807;SDS011;2930;42.678;23.312;2022-12-18T13:25:02;6.13;;;4.30;;
5807;SDS011;2930;42.678;23.312;2022-12-18T13:38:34;9.47;;;5.07;;
5807;SDS011;2930;42.678;23.312;2022-12-18T13:43:42;9.27;;;5.93;;
5807;SDS011;2930;42.678;23.312;2022-12-18T13:46:21;10.83;;;5.87;;
5807;SDS011;2930;42.678;23.312;2022-12-18T13:48:53;9.63;;;5.50;;
5807;SDS011;2930;42.678;23.312;2022-12-18T13:51:47;7.07;;;5.13;;
5807;SDS011;2930;42.678;23.312;2022-12-18T13:56:57;9.00;;;5.57;;
5807;SDS011;2930;42.678;23.312;2022-12-18T13:59:24;7.73;;;5.07;;
5807;SDS011;2930;42.678;23.312;2022-12-18T14:01:58;11.33;;;4.93;;
5807;SDS011;2930;42.678;23.312;2022-12-18T14:04:28;14.80;;;5.60;;
5807;SDS011;2930;42.678;23.312;2022-12-18T14:07:01;11.53;;;5.30;;
5807;SDS011;2930;42.678;23.312;2022-12-18T14:09:31;6.57;;;4.40;;
5807;SDS011;2930;42.678;23.312;2022-12-18T14:12:02;7.47;;;5.27;;
5807;SDS011;2930;42.678;23.312;2022-12-18T14:14:47;9.70;;;4.93;;
5807;SDS011;2930;42.678;23.312;2022-12-18T14:17:15;6.33;;;4.40;;
5807;SDS011;2930;42.678;23.312;2022-12-18T14:19:43;4.70;;;4.17;;
5807;SDS011;2930;42.678;23.312;2022-12-18T14:22:20;7.03;;;4.77;;
5807;SDS011;2930;42.678;23.312;2022-12-18T14:27:42;7.57;;;5.40;;
5807;SDS011;2930;42.678;23.312;2022-12-18T14:32:59;7.63;;;4.63;;
5807;SDS011;2930;42.678;23.312;2022-12-18T14:35:30;4.30;;;3.90;;
5807;SDS011;2930;42.678;23.312;2022-12-18T14:38:09;5.83;;;4.20;;
5807;SDS011;2930;42.678;23.312;2022-12-18T14:40:35;8.90;;;4.23;;
5807;SDS011;2930;42.678;23.312;2022-12-18T14:43:01;5.93;;;4.03;;
5807;SDS011;2930;42.678;23.312;2022-12-18T14:45:34;4.20;;;3.37;;
5807;SDS011;2930;42.678;23.312;2022-12-18T14:48:09;6.03;;;3.87;;
5807;SDS011;2930;42.678;23.312;2022-12-18T14:50:42;9.90;;;4.80;;
5807;SDS011;2930;42.678;23.312;2022-12-18T14:53:22;3.97;;;3.57;;
5807;SDS011;2930;42.678;23.312;2022-12-18T14:55:53;9.43;;;4.33;;
5807;SDS011;2930;42.678;23.312;2022-12-18T14:58:19;5.87;;;4.40;;
5807;SDS011;2930;42.678;23.312;2022-12-18T15:00:45;6.27;;;4.63;;
5807;SDS011;2930;42.678;23.312;2022-12-18T15:03:12;5.33;;;4.03;;
5807;SDS011;2930;42.678;23.312;2022-12-18T15:05:44;5.93;;;3.67;;
5807;SDS011;2930;42.678;23.312;2022-12-18T15:08:24;5.57;;;4.07;;
5807;SDS011;2930;42.678;23.312;2022-12-18T15:10:54;10.20;;;5.40;;
5807;SDS011;2930;42.678;23.312;2022-12-18T15:13:22;5.77;;;3.53;;
5807;SDS011;2930;42.678;23.312;2022-12-18T15:15:49;5.07;;;3.87;;
5807;SDS011;2930;42.678;23.312;2022-12-18T15:18:20;6.30;;;4.03;;
5807;SDS011;2930;42.678;23.312;2022-12-18T15:20:56;6.60;;;4.13;;
5807;SDS011;2930;42.678;23.312;2022-12-18T15:23:25;5.90;;;4.00;;
5807;SDS011;2930;42.678;23.312;2022-12-18T15:25:55;6.40;;;3.93;;
5807;SDS011;2930;42.678;23.312;2022-12-18T15:28:43;6.90;;;4.07;;
5807;SDS011;2930;42.678;23.312;2022-12-18T15:33:37;7.77;;;4.00;;
5807;SDS011;2930;42.678;23.312;2022-12-18T15:36:26;9.50;;;4.63;;
5807;SDS011;2930;42.678;23.312;2022-12-18T15:38:52;6.80;;;4.87;;
5807;SDS011;2930;42.678;23.312;2022-12-18T15:41:19;8.20;;;4.43;;
5807;SDS011;2930;42.678;23.312;2022-12-18T15:43:50;6.70;;;3.90;;
5807;SDS011;2930;42.678;23.312;2022-12-18T15:46:21;6.70;;;3.80;;
5807;SDS011;2930;42.678;23.312;2022-12-18T15:48:51;8.20;;;4.57;;
5807;SDS011;2930;42.678;23.312;2022-12-18T15:51:29;7.87;;;4.50;;
5807;SDS011;2930;42.678;23.312;2022-12-18T15:54:02;7.47;;;4.07;;
5807;SDS011;2930;42.678;23.312;2022-12-18T15:56:30;5.17;;;3.03;;
5807;SDS011;2930;42.678;23.312;2022-12-18T15:59:18;6.23;;;4.53;;
5807;SDS011;2930;42.678;23.312;2022-12-18T16:01:48;4.73;;;3.57;;
5807;SDS011;2930;42.678;23.312;2022-12-18T16:04:17;6.27;;;4.43;;
5807;SDS011;2930;42.678;23.312;2022-12-18T16:06:47;8.03;;;4.47;;
5807;SDS011;2930;42.678;23.312;2022-12-18T16:09:13;8.27;;;5.07;;
5807;SDS011;2930;42.678;23.312;2022-12-18T16:11:39;10.67;;;5.07;;
5807;SDS011;2930;42.678;23.312;2022-12-18T16:16:37;7.40;;;4.70;;
5807;SDS011;2930;42.678;23.312;2022-12-18T16:19:03;10.13;;;4.83;;
5807;SDS011;2930;42.678;23.312;2022-12-18T16:21:29;8.20;;;4.70;;
5807;SDS011;2930;42.678;23.312;2022-12-18T16:23:56;6.93;;;5.03;;
5807;SDS011;2930;42.678;23.312;2022-12-18T16:26:21;7.20;;;4.83;;
5807;SDS011;2930;42.678;23.312;2022-12-18T16:28:47;9.87;;;5.10;;
5807;SDS011;2930;42.678;23.312;2022-12-18T16:31:13;14.80;;;5.47;;
5807;SDS011;2930;42.678;23.312;2022-12-18T16:33:38;5.07;;;4.43;;
5807;SDS011;2930;42.678;23.312;2022-12-18T16:36:04;5.87;;;5.07;;
5807;SDS011;2930;42.678;23.312;2022-12-18T16:38:30;9.33;;;4.27;;
5807;SDS011;2930;42.678;23.312;2022-12-18T16:40:55;12.93;;;5.83;;
5807;SDS011;2930;42.678;23.312;2022-12-18T16:43:47;5.67;;;3.90;;
5807;SDS011;2930;42.678;23.312;2022-12-18T16:46:13;9.63;;;4.80;;
5807;SDS011;2930;42.678;23.312;2022-12-18T16:48:39;6.37;;;4.20;;
5807;SDS011;2930;42.678;23.312;2022-12-18T16:51:05;7.63;;;4.63;;
5807;SDS011;2930;42.678;23.312;2022-12-18T16:53:34;4.87;;;3.80;;
5807;SDS011;2930;42.678;23.312;2022-12-18T16:55:59;8.67;;;5.10;;
5807;SDS011;2930;42.678;23.312;2022-12-18T16:58:25;7.17;;;4.23;;
5807;SDS011;2930;42.678;23.312;2022-12-18T17:00:50;5.07;;;3.90;;
5807;SDS011;2930;42.678;23.312;2022-12-18T17:03:16;5.37;;;3.90;;
5807;SDS011;2930;42.678;23.312;2022-12-18T17:05:42;4.47;;;3.13;;
5807;SDS011;2930;42.678;23.312;2022-12-18T17:08:09;8.23;;;3.77;;
5807;SDS011;2930;42.678;23.312;2022-12-18T17:10:34;8.30;;;4.97;;
5807;SDS011;2930;42.678;23.312;2022-12-18T17:13:00;6.40;;;3.80;;
5807;SDS011;2930;42.678;23.312;2022-12-18T17:15:26;9.30;;;4.50;;
5807;SDS011;2930;42.678;23.312;2022-12-18T17:17:51;7.60;;;4.43;;
5807;SDS011;2930;42.678;23.312;2022-12-18T17:20:17;6.47;;;4.33;;
5807;SDS011;2930;42.678;23.312;2022-12-18T17:22:42;7.57;;;4.73;;
5807;SDS011;2930;42.678;23.312;2022-12-18T17:25:08;5.53;;;4.23;;
5807;SDS011;2930;42.678;23.312;2022-12-18T17:27:34;7.27;;;4.13;;
5807;SDS011;2930;42.678;23.312;2022-12-18T17:29:59;7.77;;;4.83;;
5807;SDS011;2930;42.678;23.312;2022-12-18T17:32:25;9.10;;;4.63;;
5807;SDS011;2930;42.678;23.312;2022-12-18T17:34:51;6.70;;;4.07;;
5807;SDS011;2930;42.678;23.312;2022-12-18T17:37:17;6.50;;;4.10;;
5807;SDS011;2930;42.678;23.312;2022-12-18T17:39:43;4.60;;;4.03;;
5807;SDS011;2930;42.678;23.312;2022-12-18T17:42:09;7.80;;;4.30;;